createdAt,value
2023-01-31T00:01:16.499Z,0.98
2023-01-31T00:03:43.903Z,0.98
2023-01-31T00:06:20.941Z,0.83
2023-01-31T00:08:49.431Z,0.81
2023-01-31T00:11:17.768Z,0.68
2023-01-31T00:13:44.804Z,0.72
2023-01-31T00:16:12.918Z,0.62
2023-01-31T00:18:40.113Z,0.71
2023-01-31T00:21:18.743Z,0.84
2023-01-31T00:23:46.910Z,0.97
2023-01-31T00:26:18.574Z,1.00
2023-01-31T00:28:46.379Z,0.98
2023-01-31T00:31:14.287Z,1.02
2023-01-31T00:33:43.231Z,0.95
2023-01-31T00:36:14.849Z,0.95
2023-01-31T00:38:44.935Z,0.92
2023-01-31T00:41:12.073Z,0.90
2023-01-31T00:43:38.836Z,0.79
2023-01-31T00:46:05.921Z,0.81
2023-01-31T00:48:33.027Z,0.88
2023-01-31T00:50:59.882Z,0.63
2023-01-31T00:53:26.690Z,0.76
2023-01-31T00:55:55.195Z,0.72
2023-01-31T00:58:22.349Z,0.73
2023-01-31T01:00:49.783Z,0.94
2023-01-31T01:03:16.524Z,0.90
2023-01-31T01:05:43.282Z,0.79
2023-01-31T01:08:10.248Z,0.75
2023-01-31T01:10:37.333Z,0.78
2023-01-31T01:13:05.862Z,0.76
2023-01-31T01:15:33.146Z,0.77
2023-01-31T01:17:59.987Z,0.87
2023-01-31T01:20:26.658Z,0.79
2023-01-31T01:22:53.669Z,0.82
2023-01-31T01:25:20.794Z,0.81
2023-01-31T01:27:47.634Z,0.89
2023-01-31T01:30:14.448Z,0.75
2023-01-31T01:32:41.130Z,0.80
2023-01-31T01:35:08.418Z,0.69
2023-01-31T01:37:35.141Z,0.77
2023-01-31T01:40:01.938Z,0.75
2023-01-31T01:42:35.013Z,0.75
2023-01-31T01:45:04.160Z,0.73
2023-01-31T01:47:47.884Z,0.82
2023-01-31T01:50:17.713Z,0.76
2023-01-31T01:53:21.739Z,0.88
2023-01-31T01:55:55.644Z,0.84
2023-01-31T01:58:24.332Z,0.64
2023-01-31T02:00:51.445Z,0.64
2023-01-31T02:03:18.337Z,0.64
2023-01-31T02:05:57.086Z,0.64
2023-01-31T02:08:26.522Z,0.68
2023-01-31T02:10:53.226Z,0.70
2023-01-31T02:13:20.228Z,0.84
2023-01-31T02:15:47.121Z,0.82
2023-01-31T02:18:14.685Z,0.83
2023-01-31T02:21:19.198Z,0.75
2023-01-31T02:24:10.643Z,0.75
2023-01-31T02:27:14.112Z,0.76
2023-01-31T02:30:22.147Z,0.75
2023-01-31T02:32:51.516Z,0.74
2023-01-31T02:35:46.873Z,0.74
2023-01-31T02:38:19.416Z,0.64
2023-01-31T02:40:55.297Z,0.57
2023-01-31T02:44:02.523Z,0.63
2023-01-31T02:46:40.211Z,0.59
2023-01-31T02:49:36.052Z,0.61
2023-01-31T02:52:17.564Z,0.57
2023-01-31T02:55:24.387Z,0.56
2023-01-31T02:57:52.075Z,0.53
2023-01-31T03:00:19.669Z,0.65
2023-01-31T03:02:46.611Z,0.64
2023-01-31T03:05:17.498Z,0.64
2023-01-31T03:07:48.193Z,0.66
2023-01-31T03:10:25.437Z,0.71
2023-01-31T03:13:03.218Z,0.58
2023-01-31T03:16:05.030Z,0.59
2023-01-31T03:19:02.199Z,0.63
2023-01-31T03:21:35.486Z,0.58
2023-01-31T03:24:02.832Z,0.58
2023-01-31T03:26:29.563Z,0.61
2023-01-31T03:28:58.777Z,0.56
2023-01-31T03:31:39.459Z,0.53
2023-01-31T03:34:09.365Z,0.56
2023-01-31T03:36:46.096Z,0.54
2023-01-31T03:39:34.656Z,0.51
2023-01-31T03:42:07.646Z,0.44
2023-01-31T03:44:55.398Z,0.49
2023-01-31T03:47:33.799Z,0.49
2023-01-31T03:50:05.815Z,0.27
2023-01-31T03:52:37.470Z,0.40
2023-01-31T03:55:15.875Z,0.62
2023-01-31T03:57:43.847Z,0.53
2023-01-31T04:00:14.587Z,0.48
2023-01-31T04:02:43.230Z,0.44
2023-01-31T04:05:18.870Z,0.39
2023-01-31T04:07:45.989Z,0.42
2023-01-31T04:10:21.936Z,0.42
2023-01-31T04:12:48.758Z,0.45
2023-01-31T04:15:16.016Z,0.45
2023-01-31T04:17:42.697Z,0.48
2023-01-31T04:20:10.855Z,0.46
2023-01-31T04:22:37.766Z,0.45
2023-01-31T04:25:05.798Z,0.53
2023-01-31T04:27:33.220Z,0.50
2023-01-31T04:30:00.209Z,0.54
2023-01-31T04:32:26.879Z,0.52
2023-01-31T04:34:53.600Z,0.54
2023-01-31T04:37:20.260Z,0.47
2023-01-31T04:39:46.986Z,0.50
2023-01-31T04:42:13.667Z,0.33
2023-01-31T04:44:40.431Z,0.59
2023-01-31T04:47:07.730Z,0.52
2023-01-31T04:49:34.538Z,0.42
2023-01-31T04:52:01.231Z,0.48
2023-01-31T04:54:27.949Z,0.57
2023-01-31T04:56:54.638Z,0.37
2023-01-31T04:59:21.518Z,0.50
2023-01-31T05:01:48.590Z,0.37
2023-01-31T05:04:15.388Z,0.38
2023-01-31T05:06:42.081Z,0.41
2023-01-31T05:09:09.064Z,0.57
2023-01-31T05:11:36.321Z,0.58
2023-01-31T05:14:03.494Z,0.45
2023-01-31T05:16:30.225Z,0.57
2023-01-31T05:18:57.023Z,0.49
2023-01-31T05:21:23.835Z,0.54
2023-01-31T05:23:50.461Z,0.68
2023-01-31T05:26:17.262Z,0.66
2023-01-31T05:28:43.983Z,0.63
2023-01-31T05:31:11.939Z,0.52
2023-01-31T05:33:38.721Z,0.45
2023-01-31T05:36:06.057Z,0.45
2023-01-31T05:38:32.673Z,0.33
2023-01-31T05:40:59.307Z,0.55
2023-01-31T05:43:26.075Z,0.39
2023-01-31T05:45:52.733Z,0.28
2023-01-31T05:48:19.530Z,0.40
2023-01-31T05:50:46.167Z,0.33
2023-01-31T05:53:12.903Z,0.36
2023-01-31T05:55:39.515Z,0.33
2023-01-31T05:58:06.193Z,0.27
2023-01-31T06:00:33.367Z,0.27
2023-01-31T06:03:00.371Z,0.26
2023-01-31T06:05:27.932Z,0.24
2023-01-31T06:07:55.372Z,0.46
2023-01-31T06:10:22.351Z,0.46
2023-01-31T06:12:49.220Z,0.31
2023-01-31T06:15:16.058Z,0.26
2023-01-31T06:17:42.821Z,0.32
2023-01-31T06:20:10.416Z,0.27
2023-01-31T06:22:37.181Z,0.31
2023-01-31T06:25:05.226Z,0.45
2023-01-31T06:27:33.577Z,0.56
2023-01-31T06:30:00.515Z,0.49
2023-01-31T06:32:27.269Z,0.36
2023-01-31T06:34:54.042Z,0.45
2023-01-31T06:37:20.741Z,0.39
2023-01-31T06:39:47.450Z,0.36
2023-01-31T06:42:14.164Z,0.34
2023-01-31T06:44:40.911Z,0.32
2023-01-31T06:47:07.626Z,0.32
2023-01-31T06:49:34.383Z,0.36
2023-01-31T06:52:01.111Z,0.49
2023-01-31T06:54:27.790Z,0.60
2023-01-31T06:56:54.953Z,0.55
2023-01-31T06:59:21.812Z,0.38
2023-01-31T07:01:48.564Z,0.32
2023-01-31T07:04:15.500Z,0.30
2023-01-31T07:06:42.212Z,0.27
2023-01-31T07:09:09.099Z,0.28
2023-01-31T07:11:37.747Z,0.38
2023-01-31T07:14:05.175Z,0.38
2023-01-31T07:16:32.359Z,0.38
2023-01-31T07:18:59.147Z,0.36
2023-01-31T07:21:26.571Z,0.43
2023-01-31T07:23:53.288Z,0.50
2023-01-31T07:26:20.183Z,0.66
2023-01-31T07:28:47.008Z,0.57
2023-01-31T07:31:14.947Z,0.56
2023-01-31T07:33:42.343Z,0.64
2023-01-31T07:36:13.872Z,0.58
2023-01-31T07:38:41.150Z,0.57
2023-01-31T07:41:10.959Z,0.69
2023-01-31T07:43:37.749Z,0.65
2023-01-31T07:46:32.249Z,0.63
2023-01-31T07:48:58.959Z,0.72
2023-01-31T07:51:25.820Z,0.69
2023-01-31T07:53:52.642Z,0.76
2023-01-31T07:56:21.244Z,0.69
2023-01-31T07:58:49.082Z,0.74
2023-01-31T08:01:36.796Z,0.85
2023-01-31T08:04:19.528Z,0.88
2023-01-31T08:06:48.428Z,1.09
2023-01-31T08:09:15.161Z,1.22
2023-01-31T08:11:41.941Z,1.22
2023-01-31T08:14:09.726Z,1.17
2023-01-31T08:16:37.033Z,1.37
2023-01-31T08:19:03.803Z,1.48
2023-01-31T08:21:30.638Z,1.27
2023-01-31T08:23:57.547Z,1.33
2023-01-31T08:26:24.498Z,1.38
2023-01-31T08:28:54.034Z,1.42
2023-01-31T08:31:23.530Z,1.51
2023-01-31T08:33:53.253Z,1.55
2023-01-31T08:36:26.087Z,1.72
2023-01-31T08:38:53.784Z,1.80
2023-01-31T08:41:22.056Z,1.87
2023-01-31T08:44:00.709Z,1.89
2023-01-31T08:46:31.558Z,1.88
2023-01-31T08:48:59.459Z,2.17
2023-01-31T08:51:26.354Z,2.08
2023-01-31T08:53:53.439Z,1.96
2023-01-31T08:56:21.741Z,1.92
2023-01-31T08:58:48.916Z,1.99
2023-01-31T09:01:17.954Z,2.24
2023-01-31T09:03:47.107Z,2.29
2023-01-31T09:06:21.742Z,2.61
2023-01-31T09:08:48.561Z,2.37
2023-01-31T09:11:19.183Z,2.42
2023-01-31T09:13:47.824Z,2.44
2023-01-31T09:16:15.116Z,2.54
2023-01-31T09:18:42.660Z,2.68
2023-01-31T09:21:13.299Z,2.83
2023-01-31T09:23:42.587Z,2.58
2023-01-31T09:26:13.455Z,2.43
2023-01-31T09:28:43.043Z,2.44
2023-01-31T09:31:13.547Z,2.40
2023-01-31T09:33:40.651Z,2.43
2023-01-31T09:36:12.928Z,2.82
2023-01-31T09:38:40.487Z,2.50
2023-01-31T09:41:36.352Z,2.52
2023-01-31T09:44:04.733Z,2.47
2023-01-31T09:46:37.294Z,2.59
2023-01-31T09:49:06.562Z,2.82
2023-01-31T09:51:35.165Z,2.58
2023-01-31T09:54:03.760Z,2.92
2023-01-31T09:56:50.744Z,2.99
2023-01-31T09:59:23.549Z,2.88
2023-01-31T10:02:12.387Z,2.85
2023-01-31T10:05:05.626Z,3.06
2023-01-31T10:07:43.589Z,3.16
2023-01-31T10:10:13.949Z,3.03
2023-01-31T10:12:47.164Z,3.62
2023-01-31T10:15:37.445Z,3.60
2023-01-31T10:18:21.850Z,4.25
2023-01-31T10:20:51.904Z,4.05
2023-01-31T10:23:40.480Z,4.15
2023-01-31T10:26:13.876Z,4.06
2023-01-31T10:29:05.252Z,4.70
2023-01-31T10:31:36.290Z,4.39
2023-01-31T10:34:06.079Z,4.37
2023-01-31T10:36:45.404Z,3.80
2023-01-31T10:39:18.269Z,4.67
2023-01-31T10:42:27.778Z,4.22
2023-01-31T10:44:56.949Z,4.29
2023-01-31T10:47:35.800Z,4.41
2023-01-31T10:50:13.561Z,4.58
2023-01-31T10:52:50.453Z,4.16
2023-01-31T10:55:29.520Z,4.20
2023-01-31T10:57:57.211Z,4.49
2023-01-31T11:00:30.989Z,4.47
2023-01-31T11:02:58.500Z,3.97
2023-01-31T11:05:27.991Z,4.25
2023-01-31T11:07:57.784Z,4.31
2023-01-31T11:10:29.744Z,3.79
2023-01-31T11:13:02.135Z,3.75
2023-01-31T11:15:30.028Z,3.52
2023-01-31T11:18:00.799Z,3.70
2023-01-31T11:20:33.170Z,3.49
2023-01-31T11:23:01.825Z,3.81
2023-01-31T11:25:30.878Z,3.83
2023-01-31T11:28:00.418Z,3.48
2023-01-31T11:30:36.724Z,3.81
2023-01-31T11:33:03.460Z,3.76
2023-01-31T11:35:32.521Z,3.53
2023-01-31T11:38:00.440Z,3.46
2023-01-31T11:40:30.563Z,3.48
2023-01-31T11:42:59.689Z,3.46
2023-01-31T11:45:34.342Z,3.44
2023-01-31T11:48:18.231Z,3.48
2023-01-31T11:50:50.979Z,3.52
2023-01-31T11:53:20.711Z,3.46
2023-01-31T11:55:49.494Z,3.30
2023-01-31T11:58:17.994Z,3.43
2023-01-31T12:00:59.200Z,2.97
2023-01-31T12:03:26.520Z,3.28
2023-01-31T12:06:01.047Z,3.39
2023-01-31T12:08:42.799Z,3.41
2023-01-31T12:11:09.760Z,3.54
2023-01-31T12:13:52.073Z,3.63
2023-01-31T12:16:21.281Z,3.54
2023-01-31T12:19:01.086Z,3.53
2023-01-31T12:21:27.815Z,3.55
2023-01-31T12:24:16.689Z,3.78
2023-01-31T12:26:53.195Z,3.57
2023-01-31T12:29:25.770Z,3.63
2023-01-31T12:32:05.132Z,3.65
2023-01-31T12:34:59.019Z,3.89
2023-01-31T12:37:55.213Z,4.03
2023-01-31T12:40:26.184Z,4.22
2023-01-31T12:43:22.740Z,4.06
2023-01-31T12:46:17.308Z,3.80
2023-01-31T12:48:51.376Z,3.92
2023-01-31T12:51:33.290Z,3.78
2023-01-31T12:54:03.060Z,4.07
2023-01-31T12:56:47.662Z,4.06
2023-01-31T12:59:17.306Z,3.86
2023-01-31T13:01:52.687Z,3.95
2023-01-31T13:04:28.652Z,3.77
2023-01-31T13:07:01.284Z,3.65
2023-01-31T13:09:31.913Z,3.61
2023-01-31T13:12:08.316Z,3.73
2023-01-31T13:14:42.117Z,3.56
2023-01-31T13:17:12.909Z,3.61
2023-01-31T13:20:05.775Z,3.80
2023-01-31T13:22:37.263Z,3.64
2023-01-31T13:25:17.003Z,3.50
2023-01-31T13:27:47.459Z,3.46
2023-01-31T13:30:23.891Z,3.60
2023-01-31T13:32:52.652Z,3.54
2023-01-31T13:35:25.910Z,3.65
2023-01-31T13:37:56.626Z,3.44
2023-01-31T13:40:26.499Z,3.60
2023-01-31T13:42:54.484Z,3.56
2023-01-31T13:45:46.117Z,3.58
2023-01-31T13:48:27.580Z,3.47
2023-01-31T13:50:59.775Z,3.43
2023-01-31T13:53:40.379Z,3.57
2023-01-31T13:56:10.260Z,3.37
2023-01-31T13:58:37.133Z,3.42
2023-01-31T14:01:13.460Z,3.43
2023-01-31T14:04:21.771Z,3.47
2023-01-31T14:06:54.387Z,3.57
2023-01-31T14:09:32.390Z,3.51
2023-01-31T14:12:20.511Z,3.44
2023-01-31T14:14:51.678Z,3.50
2023-01-31T14:17:21.504Z,3.42
2023-01-31T14:19:49.355Z,3.51
2023-01-31T14:22:20.120Z,3.60
2023-01-31T14:24:46.874Z,3.60
2023-01-31T14:27:30.854Z,3.54
2023-01-31T14:30:08.786Z,3.52
2023-01-31T14:32:39.863Z,3.55
2023-01-31T14:35:12.510Z,3.45
2023-01-31T14:38:00.571Z,3.49
2023-01-31T14:40:30.459Z,3.52
2023-01-31T14:43:15.358Z,3.38
2023-01-31T14:45:54.015Z,3.28
2023-01-31T14:48:29.217Z,3.42
2023-01-31T14:51:43.418Z,3.42
2023-01-31T14:54:31.685Z,3.51
2023-01-31T14:57:10.621Z,3.47
2023-01-31T14:59:45.191Z,3.43
2023-01-31T15:02:36.787Z,3.54
2023-01-31T15:05:13.649Z,3.46
2023-01-31T15:08:13.995Z,3.43
2023-01-31T15:11:14.251Z,3.43
2023-01-31T15:13:49.869Z,3.33
2023-01-31T15:16:25.048Z,3.40
2023-01-31T15:19:08.357Z,3.52
2023-01-31T15:21:40.326Z,3.37
2023-01-31T15:24:17.123Z,3.31
2023-01-31T15:26:44.316Z,3.37
2023-01-31T15:29:19.692Z,3.18
2023-01-31T15:31:48.997Z,3.29
2023-01-31T15:34:27.790Z,3.23
2023-01-31T15:37:07.178Z,2.88
2023-01-31T15:39:57.444Z,2.95
2023-01-31T15:42:27.009Z,2.76
2023-01-31T15:45:30.721Z,3.06
2023-01-31T15:48:06.689Z,2.54
2023-01-31T15:50:35.213Z,2.36
2023-01-31T15:53:12.778Z,2.18
2023-01-31T15:55:40.794Z,2.26
2023-01-31T15:58:08.553Z,2.33
2023-01-31T16:00:37.059Z,2.40
2023-01-31T16:03:08.124Z,2.73
2023-01-31T16:05:37.221Z,3.06
2023-01-31T16:08:34.311Z,2.79
2023-01-31T16:11:04.936Z,3.44
2023-01-31T16:13:34.373Z,3.03
2023-01-31T16:16:01.510Z,2.96
2023-01-31T16:18:29.837Z,3.07
2023-01-31T16:20:58.022Z,3.09
2023-01-31T16:23:31.986Z,3.34
2023-01-31T16:26:21.901Z,3.02
2023-01-31T16:28:54.977Z,2.60
2023-01-31T16:31:23.209Z,2.69
2023-01-31T16:33:50.974Z,2.94
2023-01-31T16:36:23.473Z,3.03
2023-01-31T16:39:05.470Z,3.13
2023-01-31T16:41:51.847Z,3.30
2023-01-31T16:44:20.233Z,3.13
2023-01-31T16:46:48.543Z,3.38
2023-01-31T16:49:25.933Z,3.17
2023-01-31T16:52:02.111Z,3.38
2023-01-31T16:54:33.579Z,3.28
2023-01-31T16:57:03.170Z,3.27
2023-01-31T16:59:39.290Z,3.29
2023-01-31T17:02:19.631Z,3.29
2023-01-31T17:04:48.101Z,2.95
2023-01-31T17:07:20.108Z,2.54
2023-01-31T17:09:47.650Z,2.80
2023-01-31T17:12:20.675Z,3.06
2023-01-31T17:14:47.653Z,2.80
2023-01-31T17:17:20.535Z,2.84
2023-01-31T17:19:48.636Z,3.04
2023-01-31T17:22:15.749Z,2.78
2023-01-31T17:24:42.515Z,2.60
2023-01-31T17:27:14.820Z,2.74
2023-01-31T17:29:42.322Z,3.27
2023-01-31T17:32:12.557Z,3.06
2023-01-31T17:34:39.981Z,2.80
2023-01-31T17:37:07.316Z,2.27
2023-01-31T17:39:35.081Z,2.40
2023-01-31T17:42:01.793Z,2.26
2023-01-31T17:44:28.622Z,2.16
2023-01-31T17:46:55.324Z,2.36
2023-01-31T17:49:22.273Z,2.68
2023-01-31T17:51:49.091Z,3.16
2023-01-31T17:54:15.867Z,3.00
2023-01-31T17:56:42.588Z,2.87
2023-01-31T17:59:18.294Z,2.64
2023-01-31T18:01:52.328Z,2.67
2023-01-31T18:04:19.053Z,2.47
2023-01-31T18:06:45.800Z,2.39
2023-01-31T18:09:15.741Z,2.42
2023-01-31T18:11:43.913Z,2.39
2023-01-31T18:14:12.022Z,2.33
2023-01-31T18:16:38.969Z,2.70
2023-01-31T18:19:05.844Z,2.85
2023-01-31T18:21:34.297Z,2.57
2023-01-31T18:24:01.755Z,2.52
2023-01-31T18:26:28.875Z,2.41
2023-01-31T18:28:57.633Z,2.26
2023-01-31T18:31:24.610Z,2.50
2023-01-31T18:33:51.392Z,2.67
2023-01-31T18:36:19.977Z,2.64
2023-01-31T18:38:48.632Z,2.62
2023-01-31T18:41:19.009Z,2.82
2023-01-31T18:43:46.948Z,2.89
2023-01-31T18:46:14.271Z,2.62
2023-01-31T18:48:42.046Z,2.86
2023-01-31T18:51:11.149Z,2.89
2023-01-31T18:53:40.465Z,3.23
2023-01-31T18:56:10.548Z,3.09
2023-01-31T18:58:39.504Z,2.91
2023-01-31T19:01:12.040Z,2.87
2023-01-31T19:03:39.540Z,2.79
2023-01-31T19:06:14.833Z,2.63
2023-01-31T19:08:51.577Z,2.52
2023-01-31T19:11:25.867Z,2.66
2023-01-31T19:13:59.968Z,2.93
2023-01-31T19:16:31.986Z,3.06
2023-01-31T19:19:00.190Z,2.82
2023-01-31T19:21:32.109Z,2.96
2023-01-31T19:24:02.523Z,2.93
2023-01-31T19:26:36.368Z,3.35
2023-01-31T19:29:05.035Z,3.15
2023-01-31T19:31:35.498Z,3.00
2023-01-31T19:34:04.652Z,2.68
2023-01-31T19:36:38.748Z,2.98
2023-01-31T19:39:11.367Z,2.89
2023-01-31T19:41:38.986Z,3.02
2023-01-31T19:44:06.599Z,2.84
2023-01-31T19:46:37.148Z,2.78
2023-01-31T19:49:05.686Z,3.19
2023-01-31T19:51:35.691Z,3.26
2023-01-31T19:54:08.135Z,3.35
2023-01-31T19:56:36.044Z,3.50
2023-01-31T19:59:04.281Z,3.50
2023-01-31T20:01:33.807Z,3.36
2023-01-31T20:04:02.183Z,3.52
2023-01-31T20:06:30.303Z,3.54
2023-01-31T20:09:01.441Z,3.51
2023-01-31T20:11:31.520Z,3.23
2023-01-31T20:14:04.080Z,3.43
2023-01-31T20:16:31.033Z,3.36
2023-01-31T20:18:58.980Z,3.41
2023-01-31T20:21:26.949Z,3.61
2023-01-31T20:23:55.048Z,3.51
2023-01-31T20:26:25.252Z,3.51
2023-01-31T20:28:52.707Z,3.37
2023-01-31T21:09:45.945Z,3.09
2023-01-31T21:12:12.578Z,2.85
2023-01-31T21:14:39.247Z,2.75
2023-01-31T21:17:05.998Z,2.74
2023-01-31T21:19:32.565Z,2.69
2023-01-31T21:21:59.275Z,2.63
2023-01-31T21:24:25.899Z,2.58
2023-01-31T21:26:52.657Z,2.55
2023-01-31T21:29:19.516Z,2.53
2023-01-31T21:31:46.425Z,2.56
2023-01-31T21:34:13.119Z,2.37
2023-01-31T21:36:39.705Z,2.34
2023-01-31T21:39:06.428Z,2.41
2023-01-31T21:41:51.350Z,2.46
2023-01-31T21:44:18.051Z,2.51
2023-01-31T21:46:46.639Z,2.52
2023-01-31T21:49:13.326Z,2.42
2023-01-31T21:51:39.955Z,2.24
2023-01-31T21:54:06.799Z,2.29
2023-01-31T21:56:33.436Z,2.18
2023-01-31T21:59:00.129Z,2.15
2023-01-31T22:01:34.546Z,2.15
2023-01-31T22:04:01.628Z,2.36
2023-01-31T22:06:39.150Z,2.27
2023-01-31T22:09:10.714Z,2.40
2023-01-31T22:11:38.237Z,2.12
2023-01-31T22:14:10.441Z,2.36
2023-01-31T22:16:37.579Z,2.31
2023-01-31T22:19:04.773Z,2.27
2023-01-31T22:21:34.746Z,2.44
2023-01-31T22:24:03.059Z,2.33
2023-01-31T22:26:31.809Z,2.40
2023-01-31T22:29:00.701Z,2.52
2023-01-31T22:31:27.898Z,2.55
2023-01-31T22:33:56.101Z,2.34
2023-01-31T22:36:24.808Z,2.48
2023-01-31T22:38:51.588Z,2.43
2023-01-31T22:41:20.035Z,2.42
2023-01-31T22:43:48.942Z,2.39
2023-01-31T22:46:22.268Z,2.43
2023-01-31T22:48:49.637Z,2.46
2023-01-31T22:51:19.837Z,2.31
2023-01-31T22:53:47.147Z,2.26
2023-01-31T22:56:18.829Z,2.16
2023-01-31T22:58:49.048Z,2.02
2023-01-31T23:01:18.694Z,2.06
2023-01-31T23:03:45.848Z,1.99
2023-01-31T23:06:13.218Z,2.02
2023-01-31T23:08:40.333Z,2.06
2023-01-31T23:11:12.385Z,2.12
2023-01-31T23:13:39.321Z,2.05
2023-01-31T23:16:07.503Z,2.03
2023-01-31T23:18:34.322Z,2.10
2023-01-31T23:21:08.864Z,1.99
2023-01-31T23:23:35.609Z,1.93
2023-01-31T23:26:03.219Z,2.16
2023-01-31T23:28:30.061Z,2.21
2023-01-31T23:30:56.836Z,2.13
2023-01-31T23:33:23.546Z,2.03
2023-01-31T23:35:50.857Z,1.97
2023-01-31T23:38:17.583Z,2.00
2023-01-31T23:40:44.402Z,1.98
2023-01-31T23:43:10.975Z,2.03
2023-01-31T23:45:37.623Z,2.05
2023-01-31T23:48:04.474Z,1.98
2023-01-31T23:50:31.055Z,1.94
2023-01-31T23:52:57.661Z,1.90
2023-01-31T23:55:24.316Z,1.92
2023-01-31T23:57:51.017Z,1.89
